Time,TemperatureF,DewpointF,PressureIn,WindDirection,WindDirectionDegrees,WindSpeedMPH,WindSpeedGustMPH,Humidity,HourlyPrecipIn,Conditions,Clouds,dailyrainin,SoftwareType,DateUTC
2013-04-19 00:00:00,43.0,-99.9,30.17,SSW,204,15.0,17.0,-999,-99.99,,,-99.99,,2013-04-19 04:00:00,
2013-04-19 00:43:00,43.0,-99.9,30.17,SSW,204,15.0,17.0,-999,-99.99,,,-99.99,,2013-04-19 04:43:00,
2013-04-19 00:52:00,43.0,-99.9,30.17,SSW,204,15.0,17.0,-999,-99.99,,,-99.99,,2013-04-19 04:52:00,
2013-04-19 01:30:00,44.0,-99.9,30.09,South,189,19.0,23.0,-999,-99.99,,,-99.99,,2013-04-19 05:30:00,
2013-04-19 01:42:00,44.0,-99.9,30.11,South,190,20.0,23.0,-999,-99.99,,,-99.99,,2013-04-19 05:42:00,
2013-04-19 01:52:00,44.0,-99.9,30.11,South,190,20.0,23.0,-999,-99.99,,,-99.99,,2013-04-19 05:52:00,
2013-04-19 02:02:00,44.0,-99.9,30.09,South,189,19.0,23.0,-999,-99.99,,,-99.99,,2013-04-19 06:02:00,
2013-04-19 02:12:00,44.0,-99.9,30.09,South,189,19.0,23.0,-999,-99.99,,,-99.99,,2013-04-19 06:12:00,
2013-04-19 02:22:00,44.0,-99.9,30.09,South,189,19.0,23.0,-999,-99.99,,,-99.99,,2013-04-19 06:22:00,
2013-04-19 02:30:00,44.0,-99.9,30.04,South,191,20.0,24.0,-999,-99.99,,,-99.99,,2013-04-19 06:30:00,
2013-04-19 02:42:00,44.0,-99.9,30.07,SSW,197,19.0,23.0,-999,-99.99,,,-99.99,,2013-04-19 06:42:00,
2013-04-19 02:53:00,44.0,-99.9,30.07,SSW,197,19.0,23.0,-999,-99.99,,,-99.99,,2013-04-19 06:53:00,
2013-04-19 03:00:00,44.0,-99.9,30.02,SSW,203,20.0,24.0,-999,-99.99,,,-99.99,,2013-04-19 07:00:00,
2013-04-19 03:02:00,44.0,-99.9,30.04,South,191,20.0,24.0,-999,-99.99,,,-99.99,,2013-04-19 07:02:00,
2013-04-19 03:12:00,44.0,-99.9,30.04,South,191,20.0,24.0,-999,-99.99,,,-99.99,,2013-04-19 07:12:00,
2013-04-19 03:22:00,44.0,-99.9,30.04,South,191,20.0,24.0,-999,-99.99,,,-99.99,,2013-04-19 07:22:00,
2013-04-19 03:42:00,44.0,-99.9,30.02,SSW,203,20.0,24.0,-999,-99.99,,,-99.99,,2013-04-19 07:42:00,
2013-04-19 03:52:00,44.0,-99.9,30.02,SSW,203,20.0,24.0,-999,-99.99,,,-99.99,,2013-04-19 07:52:00,
2013-04-19 04:00:00,44.0,-99.9,30.02,SW,231,17.0,21.0,-999,-99.99,,,-99.99,,2013-04-19 08:00:00,
2013-04-19 04:42:00,44.0,-99.9,30.02,SW,231,17.0,21.0,-999,-99.99,,,-99.99,,2013-04-19 08:42:00,
2013-04-19 04:52:00,44.0,-99.9,30.02,SW,231,17.0,21.0,-999,-99.99,,,-99.99,,2013-04-19 08:52:00,
2013-04-19 05:00:00,44.0,-99.9,30.01,WSW,250,17.0,21.0,-999,-99.99,,,-99.99,,2013-04-19 09:00:00,
2013-04-19 05:43:00,44.0,-99.9,30.01,WSW,250,17.0,21.0,-999,-99.99,,,-99.99,,2013-04-19 09:43:00,
2013-04-19 05:52:00,44.0,-99.9,30.01,WSW,250,17.0,21.0,-999,-99.99,,,-99.99,,2013-04-19 09:52:00,
2013-04-19 06:00:00,44.0,-99.9,29.99,SW,226,14.0,16.0,-999,-99.99,,,-99.99,,2013-04-19 10:00:00,
2013-04-19 06:42:00,44.0,-99.9,29.99,SW,226,14.0,16.0,-999,-99.99,,,-99.99,,2013-04-19 10:42:00,
2013-04-19 06:52:00,44.0,-99.9,29.99,SW,226,14.0,16.0,-999,-99.99,,,-99.99,,2013-04-19 10:52:00,
2013-04-19 07:00:00,44.0,-99.9,29.97,SSW,210,14.0,16.0,-999,-99.99,,,-99.99,,2013-04-19 11:00:00,
2013-04-19 07:43:00,44.0,-99.9,29.97,SSW,210,14.0,16.0,-999,-99.99,,,-99.99,,2013-04-19 11:43:00,
2013-04-19 07:53:00,44.0,-99.9,29.97,SSW,210,14.0,16.0,-999,-99.99,,,-99.99,,2013-04-19 11:53:00,
2013-04-19 08:00:00,44.0,-99.9,29.98,SSW,212,8.0,9.0,-999,-99.99,,,-99.99,,2013-04-19 12:00:00,
2013-04-19 08:42:00,44.0,-99.9,29.98,SSW,212,8.0,9.0,-999,-99.99,,,-99.99,,2013-04-19 12:42:00,
2013-04-19 08:53:00,44.0,-99.9,29.98,SSW,212,8.0,9.0,-999,-99.99,,,-99.99,,2013-04-19 12:53:00,
2013-04-19 09:00:00,44.0,-99.9,29.97,SSW,208,13.0,15.0,-999,-99.99,,,-99.99,,2013-04-19 13:00:00,
2013-04-19 09:42:00,44.0,-99.9,29.97,SSW,208,13.0,15.0,-999,-99.99,,,-99.99,,2013-04-19 13:42:00,
2013-04-19 09:52:00,44.0,-99.9,29.97,SSW,208,13.0,15.0,-999,-99.99,,,-99.99,,2013-04-19 13:52:00,
2013-04-19 10:00:00,45.0,-99.9,29.95,SSW,210,12.0,14.0,-999,-99.99,,,-99.99,,2013-04-19 14:00:00,
2013-04-19 10:43:00,45.0,-99.9,29.95,SSW,210,12.0,14.0,-999,-99.99,,,-99.99,,2013-04-19 14:43:00,
2013-04-19 10:52:00,45.0,-99.9,29.95,SSW,210,12.0,14.0,-999,-99.99,,,-99.99,,2013-04-19 14:52:00,
2013-04-19 11:00:00,45.0,-99.9,29.94,SSW,201,16.0,19.0,-999,-99.99,,,-99.99,,2013-04-19 15:00:00,
2013-04-19 11:43:00,45.0,-99.9,29.94,SSW,201,16.0,19.0,-999,-99.99,,,-99.99,,2013-04-19 15:43:00,
2013-04-19 11:53:00,45.0,-99.9,29.94,SSW,201,16.0,19.0,-999,-99.99,,,-99.99,,2013-04-19 15:53:00,
2013-04-19 12:00:00,45.0,-99.9,29.93,SW,222,12.0,13.0,-999,-99.99,,,-99.99,,2013-04-19 16:00:00,
2013-04-19 12:43:00,45.0,-99.9,29.93,SW,222,12.0,13.0,-999,-99.99,,,-99.99,,2013-04-19 16:43:00,
2013-04-19 12:53:00,45.0,-99.9,29.93,SW,222,12.0,13.0,-999,-99.99,,,-99.99,,2013-04-19 16:53:00,
2013-04-19 13:00:00,45.0,-99.9,29.90,WSW,254,8.0,10.0,-999,-99.99,,,-99.99,,2013-04-19 17:00:00,
2013-04-19 13:43:00,45.0,-99.9,29.90,WSW,254,8.0,10.0,-999,-99.99,,,-99.99,,2013-04-19 17:43:00,
2013-04-19 13:52:00,45.0,-99.9,29.90,WSW,254,8.0,10.0,-999,-99.99,,,-99.99,,2013-04-19 17:52:00,
2013-04-19 14:00:00,45.0,-99.9,29.87,SW,221,7.0,8.0,-999,-99.99,,,-99.99,,2013-04-19 18:00:00,
2013-04-19 14:43:00,45.0,-99.9,29.87,SW,221,7.0,8.0,-999,-99.99,,,-99.99,,2013-04-19 18:43:00,
2013-04-19 14:52:00,45.0,-99.9,29.87,SW,221,7.0,8.0,-999,-99.99,,,-99.99,,2013-04-19 18:52:00,
2013-04-19 15:00:00,47.0,-99.9,29.82,SSW,205,14.0,17.0,-999,-99.99,,,-99.99,,2013-04-19 19:00:00,
2013-04-19 15:42:00,47.0,-99.9,29.82,SSW,205,14.0,17.0,-999,-99.99,,,-99.99,,2013-04-19 19:42:00,
2013-04-19 15:52:00,47.0,-99.9,29.82,SSW,205,14.0,17.0,-999,-99.99,,,-99.99,,2013-04-19 19:52:00,
2013-04-19 16:00:00,46.0,-99.9,29.79,SSW,200,19.0,22.0,-999,-99.99,,,-99.99,,2013-04-19 20:00:00,
2013-04-19 16:42:00,46.0,-99.9,29.79,SSW,200,19.0,22.0,-999,-99.99,,,-99.99,,2013-04-19 20:42:00,
2013-04-19 16:52:00,46.0,-99.9,29.79,SSW,200,19.0,22.0,-999,-99.99,,,-99.99,,2013-04-19 20:52:00,
2013-04-19 17:30:00,47.0,-99.9,29.76,SSW,194,20.0,23.0,-999,-99.99,,,-99.99,,2013-04-19 21:30:00,
2013-04-19 17:43:00,47.0,-99.9,29.78,South,191,18.0,22.0,-999,-99.99,,,-99.99,,2013-04-19 21:43:00,
2013-04-19 17:53:00,47.0,-99.9,29.78,South,191,18.0,22.0,-999,-99.99,,,-99.99,,2013-04-19 21:53:00,
2013-04-19 18:02:00,47.0,-99.9,29.76,SSW,194,20.0,23.0,-999,-99.99,,,-99.99,,2013-04-19 22:02:00,
2013-04-19 18:13:00,47.0,-99.9,29.76,SSW,194,20.0,23.0,-999,-99.99,,,-99.99,,2013-04-19 22:13:00,
2013-04-19 18:23:00,47.0,-99.9,29.76,SSW,194,20.0,23.0,-999,-99.99,,,-99.99,,2013-04-19 22:23:00,
2013-04-19 18:30:00,48.0,-99.9,29.73,South,184,25.0,29.0,-999,-99.99,,,-99.99,,2013-04-19 22:30:00,
2013-04-19 18:42:00,47.0,-99.9,29.75,SSW,202,21.0,24.0,-999,-99.99,,,-99.99,,2013-04-19 22:42:00,
2013-04-19 18:52:00,47.0,-99.9,29.75,SSW,202,21.0,24.0,-999,-99.99,,,-99.99,,2013-04-19 22:52:00,
2013-04-19 19:03:00,48.0,-99.9,29.73,South,184,25.0,29.0,-999,-99.99,,,-99.99,,2013-04-19 23:03:00,
2013-04-19 19:11:00,48.0,-99.9,29.73,South,184,25.0,29.0,-999,-99.99,,,-99.99,,2013-04-19 23:11:00,
2013-04-19 19:22:00,48.0,-99.9,29.73,South,184,25.0,29.0,-999,-99.99,,,-99.99,,2013-04-19 23:22:00,
2013-04-19 19:30:00,47.0,-99.9,29.72,South,188,21.0,25.0,-999,-99.99,,,-99.99,,2013-04-19 23:30:00,
2013-04-19 19:42:00,47.0,-99.9,29.73,SSW,195,20.0,23.0,-999,-99.99,,,-99.99,,2013-04-19 23:42:00,
2013-04-19 19:53:00,47.0,-99.9,29.73,SSW,195,20.0,23.0,-999,-99.99,,,-99.99,,2013-04-19 23:53:00,
2013-04-19 20:02:00,47.0,-99.9,29.72,South,188,21.0,25.0,-999,-99.99,,,-99.99,,2013-04-20 00:02:00,
2013-04-19 20:12:00,47.0,-99.9,29.72,South,188,21.0,25.0,-999,-99.99,,,-99.99,,2013-04-20 00:12:00,
2013-04-19 20:22:00,47.0,-99.9,29.72,South,188,21.0,25.0,-999,-99.99,,,-99.99,,2013-04-20 00:22:00,
2013-04-19 20:30:00,48.0,-99.9,29.71,South,185,23.0,27.0,-999,-99.99,,,-99.99,,2013-04-20 00:30:00,
2013-04-19 20:42:00,47.0,-99.9,29.72,South,185,22.0,27.0,-999,-99.99,,,-99.99,,2013-04-20 00:42:00,
2013-04-19 20:52:00,47.0,-99.9,29.72,South,185,22.0,27.0,-999,-99.99,,,-99.99,,2013-04-20 00:52:00,
2013-04-19 21:02:00,48.0,-99.9,29.71,South,185,23.0,27.0,-999,-99.99,,,-99.99,,2013-04-20 01:02:00,
2013-04-19 21:11:00,48.0,-99.9,29.71,South,185,23.0,27.0,-999,-99.99,,,-99.99,,2013-04-20 01:11:00,
2013-04-19 21:21:00,48.0,-99.9,29.71,South,185,23.0,27.0,-999,-99.99,,,-99.99,,2013-04-20 01:21:00,
2013-04-19 21:30:00,48.0,-99.9,29.71,SSW,200,23.0,27.0,-999,-99.99,,,-99.99,,2013-04-20 01:30:00,
2013-04-19 21:42:00,48.0,-99.9,29.70,SSW,194,23.0,29.0,-999,-99.99,,,-99.99,,2013-04-20 01:42:00,
2013-04-19 21:52:00,48.0,-99.9,29.70,SSW,194,23.0,29.0,-999,-99.99,,,-99.99,,2013-04-20 01:52:00,
2013-04-19 22:02:00,48.0,-99.9,29.71,SSW,200,23.0,27.0,-999,-99.99,,,-99.99,,2013-04-20 02:02:00,
2013-04-19 22:11:00,48.0,-99.9,29.71,SSW,200,23.0,27.0,-999,-99.99,,,-99.99,,2013-04-20 02:11:00,
2013-04-19 22:22:00,48.0,-99.9,29.71,SSW,200,23.0,27.0,-999,-99.99,,,-99.99,,2013-04-20 02:22:00,
2013-04-19 22:30:00,47.0,-99.9,29.69,SSW,200,22.0,25.0,-999,-99.99,,,-99.99,,2013-04-20 02:30:00,
2013-04-19 22:42:00,48.0,-99.9,29.69,SSW,195,24.0,28.0,-999,-99.99,,,-99.99,,2013-04-20 02:42:00,
2013-04-19 22:52:00,48.0,-99.9,29.69,SSW,195,24.0,28.0,-999,-99.99,,,-99.99,,2013-04-20 02:52:00,
2013-04-19 23:00:00,47.0,-99.9,29.68,SSW,200,19.0,22.0,-999,-99.99,,,-99.99,,2013-04-20 03:00:00,
2013-04-19 23:01:00,47.0,-99.9,29.69,SSW,200,22.0,25.0,-999,-99.99,,,-99.99,,2013-04-20 03:01:00,
2013-04-19 23:11:00,47.0,-99.9,29.69,SSW,200,22.0,25.0,-999,-99.99,,,-99.99,,2013-04-20 03:11:00,
2013-04-19 23:22:00,47.0,-99.9,29.69,SSW,200,22.0,25.0,-999,-99.99,,,-99.99,,2013-04-20 03:22:00,
2013-04-19 23:43:00,47.0,-99.9,29.68,SSW,200,19.0,22.0,-999,-99.99,,,-99.99,,2013-04-20 03:43:00,
2013-04-19 23:53:00,47.0,-99.9,29.68,SSW,200,19.0,22.0,-999,-99.99,,,-99.99,,2013-04-20 03:53:00,